createdAt,value
2022-11-21T00:01:23.870Z,25.98
2022-11-21T00:03:50.196Z,27.00
2022-11-21T00:06:16.569Z,26.27
2022-11-21T00:08:42.894Z,28.20
2022-11-21T00:11:09.269Z,26.90
2022-11-21T00:13:35.619Z,27.23
2022-11-21T00:16:01.933Z,29.57
2022-11-21T00:18:28.234Z,28.50
2022-11-21T00:20:54.563Z,26.87
2022-11-21T00:23:20.866Z,26.63
2022-11-21T00:25:47.177Z,26.80
2022-11-21T00:28:13.495Z,28.00
2022-11-21T00:30:39.812Z,27.47
2022-11-21T00:33:06.121Z,28.27
2022-11-21T00:35:32.898Z,28.50
2022-11-21T00:37:59.215Z,27.13
2022-11-21T00:40:25.529Z,26.37
2022-11-21T00:42:51.838Z,28.33
2022-11-21T00:45:23.895Z,29.00
2022-11-21T00:47:50.727Z,28.30
2022-11-21T00:50:17.047Z,27.90
2022-11-21T00:52:43.414Z,27.37
2022-11-21T00:55:09.722Z,27.80
2022-11-21T00:57:36.043Z,27.52
2022-11-21T01:00:02.360Z,27.00
2022-11-21T01:02:31.918Z,27.43
2022-11-21T01:04:58.221Z,27.13
2022-11-21T01:09:55.915Z,27.17
2022-11-21T01:12:22.224Z,26.33
2022-11-21T01:14:48.557Z,25.83
2022-11-21T01:17:14.887Z,25.92
2022-11-21T01:19:41.208Z,26.05
2022-11-21T01:22:07.525Z,27.58
2022-11-21T01:24:33.834Z,25.60
2022-11-21T01:27:00.140Z,24.87
2022-11-21T01:29:26.464Z,25.48
2022-11-21T01:31:52.841Z,25.08
2022-11-21T01:34:19.149Z,24.55
2022-11-21T01:36:45.461Z,25.25
2022-11-21T01:39:11.837Z,25.85
2022-11-21T01:41:38.142Z,23.62
2022-11-21T01:44:04.467Z,24.50
2022-11-21T01:46:30.787Z,24.20
2022-11-21T01:48:57.378Z,23.83
2022-11-21T01:51:23.697Z,23.87
2022-11-21T01:53:50.009Z,21.77
2022-11-21T01:56:16.335Z,22.67
2022-11-21T01:58:42.689Z,22.98
2022-11-21T02:01:09.144Z,21.92
2022-11-21T02:03:35.519Z,22.83
2022-11-21T02:06:01.853Z,22.95
2022-11-21T02:08:28.170Z,21.92
2022-11-21T02:10:54.541Z,20.65
2022-11-21T02:13:22.863Z,19.73
2022-11-21T02:15:49.173Z,21.95
2022-11-21T02:18:15.478Z,21.27
2022-11-21T02:20:41.792Z,20.45
2022-11-21T02:23:08.103Z,20.73
2022-11-21T02:25:34.424Z,22.27
2022-11-21T02:28:00.721Z,21.50
2022-11-21T02:30:27.925Z,21.85
2022-11-21T02:32:54.241Z,22.00
2022-11-21T02:35:20.569Z,20.35
2022-11-21T02:37:46.914Z,21.90
2022-11-21T02:40:13.233Z,21.85
2022-11-21T02:42:39.553Z,22.27
2022-11-21T02:45:05.865Z,21.27
2022-11-21T02:47:32.233Z,21.45
2022-11-21T02:49:58.545Z,21.15
2022-11-21T02:52:24.894Z,21.75
2022-11-21T02:54:51.214Z,22.45
2022-11-21T02:57:17.569Z,21.35
2022-11-21T02:59:43.875Z,21.65
2022-11-21T03:02:10.182Z,21.35
2022-11-21T03:04:36.514Z,23.02
2022-11-21T03:07:02.919Z,21.73
2022-11-21T03:09:29.296Z,22.60
2022-11-21T03:11:55.634Z,20.65
2022-11-21T03:14:21.955Z,21.02
2022-11-21T03:16:48.257Z,20.42
2022-11-21T03:19:14.578Z,22.05
2022-11-21T03:21:40.906Z,21.37
2022-11-21T03:24:07.220Z,21.40
2022-11-21T03:26:33.540Z,21.48
2022-11-21T03:28:59.874Z,20.45
2022-11-21T03:31:26.207Z,19.92
2022-11-21T03:33:52.537Z,21.05
2022-11-21T03:36:18.854Z,19.67
2022-11-21T03:38:45.155Z,18.42
2022-11-21T03:41:29.320Z,19.48
2022-11-21T03:43:55.641Z,19.55
2022-11-21T03:46:21.960Z,18.02
2022-11-21T03:48:48.264Z,18.12
2022-11-21T03:51:14.593Z,17.37
2022-11-21T03:53:40.903Z,17.05
2022-11-21T03:56:07.210Z,16.80
2022-11-21T03:58:33.526Z,17.05
2022-11-21T04:00:59.980Z,16.15
2022-11-21T04:03:26.294Z,16.15
2022-11-21T04:05:52.613Z,16.42
2022-11-21T04:08:18.930Z,16.52
2022-11-21T04:10:45.244Z,16.58
2022-11-21T04:13:11.550Z,14.50
2022-11-21T04:15:37.872Z,13.88
2022-11-21T04:18:04.192Z,15.07
2022-11-21T04:20:30.508Z,13.82
2022-11-21T04:22:56.816Z,13.50
2022-11-21T04:25:23.121Z,14.05
2022-11-21T04:27:49.450Z,12.82
2022-11-21T04:30:15.783Z,14.05
2022-11-21T04:32:42.103Z,12.15
2022-11-21T04:35:08.414Z,13.45
2022-11-21T04:37:34.745Z,13.10
2022-11-21T04:40:01.058Z,12.02
2022-11-21T04:42:27.396Z,13.80
2022-11-21T04:44:53.786Z,12.45
2022-11-21T04:47:20.106Z,14.10
2022-11-21T04:49:46.422Z,14.20
2022-11-21T04:52:12.917Z,13.60
2022-11-21T04:54:39.288Z,13.07
2022-11-21T04:57:05.757Z,15.48
2022-11-21T04:59:32.099Z,15.07
2022-11-21T05:01:58.418Z,15.70
2022-11-21T05:04:24.790Z,14.80
2022-11-21T05:06:51.146Z,14.35
2022-11-21T05:09:17.755Z,15.45
2022-11-21T05:12:02.838Z,14.98
2022-11-21T05:14:29.399Z,15.02
2022-11-21T05:16:55.970Z,16.52
2022-11-21T05:19:22.302Z,14.55
2022-11-21T05:21:48.620Z,14.20
2022-11-21T05:24:14.930Z,14.05
2022-11-21T05:26:41.362Z,14.93
2022-11-21T05:29:07.672Z,15.68
2022-11-21T05:31:33.990Z,15.60
2022-11-21T05:34:00.289Z,15.38
2022-11-21T05:36:26.617Z,16.05
2022-11-21T05:38:52.943Z,15.70
2022-11-21T05:41:19.260Z,15.65
2022-11-21T05:43:49.118Z,15.65
2022-11-21T05:46:15.521Z,15.70
2022-11-21T05:48:41.838Z,15.18
2022-11-21T05:51:08.156Z,16.08
2022-11-21T05:53:34.463Z,16.37
2022-11-21T05:56:00.846Z,16.48
2022-11-21T05:58:27.150Z,17.00
2022-11-21T06:00:59.773Z,17.50
2022-11-21T06:03:31.000Z,15.85
2022-11-21T06:05:57.468Z,16.35
2022-11-21T06:08:23.769Z,18.02
2022-11-21T06:10:50.100Z,17.52
2022-11-21T06:13:22.664Z,19.50
2022-11-21T06:15:49.333Z,20.90
2022-11-21T06:18:15.669Z,20.02
2022-11-21T06:20:42.305Z,20.92
2022-11-21T06:23:08.671Z,19.08
2022-11-21T06:25:34.973Z,19.75
2022-11-21T06:28:01.295Z,21.83
2022-11-21T06:30:27.593Z,21.05
2022-11-21T06:32:53.973Z,23.62
2022-11-21T06:35:20.341Z,24.17
2022-11-21T06:37:50.747Z,21.25
2022-11-21T06:40:19.649Z,22.25
2022-11-21T06:42:46.009Z,21.75
2022-11-21T06:45:12.394Z,19.92
2022-11-21T06:47:38.707Z,20.10
2022-11-21T06:50:05.173Z,18.65
2022-11-21T06:52:31.474Z,18.25
2022-11-21T06:54:57.804Z,16.90
2022-11-21T06:57:24.101Z,17.77
2022-11-21T06:59:50.452Z,17.25
2022-11-21T07:02:16.766Z,18.15
2022-11-21T07:04:43.090Z,19.50
2022-11-21T07:07:09.526Z,18.48
2022-11-21T07:09:38.139Z,17.25
2022-11-21T07:12:23.254Z,17.48
2022-11-21T07:14:49.585Z,18.25
2022-11-21T07:17:16.091Z,16.23
2022-11-21T07:19:42.447Z,16.20
2022-11-21T07:22:08.769Z,16.95
2022-11-21T07:24:35.362Z,16.83
2022-11-21T07:27:01.679Z,15.93
2022-11-21T07:29:28.227Z,17.37
2022-11-21T07:31:54.777Z,17.77
2022-11-21T07:34:21.124Z,15.68
2022-11-21T07:36:48.786Z,14.02
2022-11-21T07:39:15.125Z,14.57
2022-11-21T07:41:41.452Z,18.50
2022-11-21T07:44:07.764Z,16.73
2022-11-21T07:46:35.793Z,17.87
2022-11-21T07:49:03.778Z,17.40
2022-11-21T07:51:30.345Z,20.27
2022-11-21T07:53:56.736Z,20.05
2022-11-21T07:56:26.617Z,21.37
2022-11-21T07:58:53.099Z,20.33
2022-11-21T08:01:19.496Z,20.88
2022-11-21T08:03:45.847Z,21.02
2022-11-21T08:06:12.331Z,20.20
2022-11-21T08:08:38.674Z,19.80
2022-11-21T08:11:05.253Z,21.75
2022-11-21T08:13:32.451Z,19.50
2022-11-21T08:15:58.799Z,17.20
2022-11-21T08:18:25.113Z,18.02
2022-11-21T08:20:51.426Z,21.27
2022-11-21T08:23:17.750Z,21.15
2022-11-21T08:25:45.310Z,18.20
2022-11-21T08:28:11.690Z,18.45
2022-11-21T08:30:38.045Z,16.95
2022-11-21T08:33:04.374Z,19.73
2022-11-21T08:35:30.707Z,19.08
2022-11-21T08:37:57.375Z,19.60
2022-11-21T08:40:23.728Z,19.05
2022-11-21T08:42:50.063Z,21.77
2022-11-21T08:45:16.410Z,19.60
2022-11-21T08:47:42.728Z,19.85
2022-11-21T08:50:12.276Z,20.10
2022-11-21T08:52:38.615Z,19.35
2022-11-21T08:55:04.925Z,22.13
2022-11-21T08:57:31.853Z,19.05
2022-11-21T08:59:58.153Z,19.48
2022-11-21T09:02:24.464Z,20.92
2022-11-21T09:04:50.859Z,18.55
2022-11-21T09:07:17.249Z,19.08
2022-11-21T09:09:43.756Z,19.83
2022-11-21T09:12:10.149Z,19.77
2022-11-21T09:14:55.558Z,18.87
2022-11-21T09:17:40.721Z,16.43
2022-11-21T09:20:07.102Z,18.98
2022-11-21T09:22:33.469Z,18.48
2022-11-21T09:24:59.786Z,17.95
2022-11-21T09:27:26.104Z,19.27
2022-11-21T09:29:54.211Z,18.80
2022-11-21T09:32:20.844Z,17.85
2022-11-21T09:34:47.231Z,20.00
2022-11-21T09:37:17.013Z,19.55
2022-11-21T09:39:43.317Z,20.43
2022-11-21T09:42:09.654Z,20.30
2022-11-21T09:44:36.221Z,19.13
2022-11-21T09:47:02.623Z,20.25
2022-11-21T09:49:29.205Z,21.15
2022-11-21T09:51:55.711Z,20.85
2022-11-21T09:54:22.031Z,22.33
2022-11-21T09:56:48.604Z,23.73
2022-11-21T09:59:14.917Z,20.88
2022-11-21T10:01:41.241Z,22.87
2022-11-21T10:04:07.598Z,23.25
2022-11-21T10:06:33.964Z,22.70
2022-11-21T10:09:00.704Z,21.67
2022-11-21T10:11:27.022Z,20.65
2022-11-21T10:13:53.335Z,21.75
2022-11-21T10:16:19.638Z,22.77
2022-11-21T10:18:46.000Z,22.17
2022-11-21T10:21:12.368Z,21.52
2022-11-21T10:23:38.693Z,22.05
2022-11-21T10:26:05.097Z,23.45
2022-11-21T10:28:31.445Z,22.77
2022-11-21T10:30:57.761Z,22.08
2022-11-21T10:33:24.075Z,22.13
2022-11-21T10:35:50.394Z,21.30
2022-11-21T10:38:16.710Z,20.35
2022-11-21T10:40:43.073Z,21.17
2022-11-21T10:43:28.200Z,19.58
2022-11-21T10:45:54.553Z,19.62
2022-11-21T10:48:20.865Z,20.15
2022-11-21T10:50:47.203Z,20.92
2022-11-21T10:53:32.422Z,19.45
2022-11-21T10:55:58.788Z,22.10
2022-11-21T10:58:25.391Z,20.90
2022-11-21T11:00:51.813Z,21.70
2022-11-21T11:03:18.420Z,22.62
2022-11-21T11:05:44.756Z,19.80
2022-11-21T11:08:11.100Z,21.37
2022-11-21T11:10:37.421Z,20.75
2022-11-21T11:13:51.231Z,21.73
2022-11-21T11:16:08.859Z,17.75
2022-11-21T11:18:35.291Z,19.83
2022-11-21T11:21:01.619Z,20.05
2022-11-21T11:23:28.050Z,19.90
2022-11-21T11:25:54.433Z,19.85
2022-11-21T11:28:20.987Z,20.17
2022-11-21T11:30:47.367Z,21.02
2022-11-21T11:33:13.681Z,20.90
2022-11-21T11:35:40.603Z,20.37
2022-11-21T11:38:07.189Z,18.98
2022-11-21T11:40:33.594Z,19.95
2022-11-21T11:43:18.925Z,20.30
2022-11-21T11:46:03.710Z,19.70
2022-11-21T11:48:30.091Z,18.23
2022-11-21T11:50:56.417Z,19.37
2022-11-21T11:53:22.769Z,20.00
2022-11-21T11:55:49.109Z,19.00
2022-11-21T11:58:15.435Z,19.42
2022-11-21T12:00:45.118Z,17.95
2022-11-21T12:03:11.434Z,18.50
2022-11-21T12:05:37.752Z,17.75
2022-11-21T12:08:40.040Z,18.55
2022-11-21T12:11:09.340Z,19.02
2022-11-21T12:13:35.708Z,17.83
2022-11-21T12:16:08.661Z,19.60
2022-11-21T12:18:39.355Z,18.95
2022-11-21T12:21:05.679Z,19.23
2022-11-21T12:23:32.266Z,18.45
2022-11-21T12:25:58.584Z,17.50
2022-11-21T12:28:24.962Z,18.52
2022-11-21T12:30:51.410Z,18.15
2022-11-21T12:33:17.735Z,18.50
2022-11-21T12:35:44.047Z,19.17
2022-11-21T12:38:10.373Z,18.15
2022-11-21T12:40:36.723Z,17.23
2022-11-21T12:43:04.653Z,17.48
2022-11-21T12:45:32.190Z,18.90
2022-11-21T12:48:17.386Z,18.10
2022-11-21T12:51:02.483Z,18.02
2022-11-21T12:53:47.487Z,18.02
2022-11-21T12:56:13.788Z,17.95
2022-11-21T12:58:40.100Z,18.12
2022-11-21T13:01:06.531Z,17.90
2022-11-21T13:03:33.581Z,17.67
2022-11-21T13:05:59.984Z,17.25
2022-11-21T13:08:26.320Z,19.17
2022-11-21T13:11:12.620Z,17.73
2022-11-21T13:13:39.116Z,18.42
2022-11-21T13:16:05.459Z,18.27
2022-11-21T13:18:31.838Z,19.17
2022-11-21T13:20:59.158Z,19.45
2022-11-21T13:23:25.535Z,20.92
2022-11-21T13:25:52.677Z,19.12
2022-11-21T13:28:19.058Z,19.95
2022-11-21T13:30:45.404Z,19.60
2022-11-21T13:33:11.986Z,18.52
2022-11-21T13:35:38.374Z,19.40
2022-11-21T13:38:04.767Z,20.25
2022-11-21T13:40:31.095Z,19.77
2022-11-21T13:43:25.181Z,19.45
2022-11-21T13:45:43.933Z,17.87
2022-11-21T13:48:10.273Z,18.70
2022-11-21T13:50:36.640Z,18.58
2022-11-21T13:53:03.059Z,19.15
2022-11-21T13:55:29.471Z,19.12
2022-11-21T13:57:57.727Z,18.92
2022-11-21T14:00:24.118Z,19.17
2022-11-21T14:02:50.470Z,18.58
2022-11-21T14:05:17.399Z,18.83
2022-11-21T14:07:43.951Z,19.30
2022-11-21T14:10:12.188Z,18.55
2022-11-21T14:12:44.324Z,19.60
2022-11-21T14:15:11.221Z,18.95
2022-11-21T14:17:37.624Z,19.05
2022-11-21T14:20:03.941Z,20.10
2022-11-21T14:22:34.747Z,19.02
2022-11-21T14:25:01.940Z,20.58
2022-11-21T14:27:28.298Z,22.50
2022-11-21T14:29:55.203Z,21.55
2022-11-21T14:32:21.551Z,22.00
2022-11-21T14:34:47.911Z,22.30
2022-11-21T14:37:14.278Z,21.30
2022-11-21T14:39:44.152Z,20.30
2022-11-21T14:42:11.579Z,22.50
2022-11-21T14:44:37.984Z,21.23
2022-11-21T14:47:04.376Z,22.23
2022-11-21T14:49:30.789Z,23.08
2022-11-21T14:51:57.152Z,23.70
2022-11-21T14:54:23.523Z,24.40
2022-11-21T14:56:49.952Z,23.33
2022-11-21T14:59:16.274Z,22.95
2022-11-21T15:01:47.551Z,22.98
2022-11-21T15:04:14.294Z,22.77
2022-11-21T15:06:40.630Z,22.25
2022-11-21T15:11:53.513Z,23.02
2022-11-21T15:14:19.938Z,22.55
2022-11-21T15:16:47.308Z,22.85
2022-11-21T15:19:13.804Z,23.10
2022-11-21T15:21:40.162Z,23.17
2022-11-21T15:24:06.561Z,22.05
2022-11-21T15:26:32.879Z,25.02
2022-11-21T15:28:59.247Z,22.95
2022-11-21T15:31:25.754Z,23.50
2022-11-21T15:34:06.430Z,21.20
2022-11-21T15:36:38.684Z,23.50
2022-11-21T15:39:05.594Z,23.95
2022-11-21T15:41:31.973Z,22.15
2022-11-21T15:43:58.279Z,22.80
2022-11-21T15:46:24.667Z,22.05
2022-11-21T15:48:51.048Z,20.40
2022-11-21T15:51:20.492Z,22.87
2022-11-21T15:53:58.342Z,22.10
2022-11-21T15:56:24.746Z,19.95
2022-11-21T15:58:51.126Z,22.30
2022-11-21T16:01:17.533Z,22.65
2022-11-21T16:03:43.998Z,22.02
2022-11-21T16:06:10.607Z,22.02
2022-11-21T16:08:36.988Z,22.00
2022-11-21T16:11:03.330Z,23.45
2022-11-21T16:13:29.673Z,22.45
2022-11-21T16:15:55.985Z,24.42
2022-11-21T16:18:22.671Z,20.37
2022-11-21T16:20:49.067Z,23.12
2022-11-21T16:23:15.379Z,23.45
2022-11-21T16:25:43.075Z,23.02
2022-11-21T16:28:09.406Z,23.52
2022-11-21T16:30:35.774Z,22.05
2022-11-21T16:33:02.086Z,32.83
2022-11-21T16:35:28.412Z,24.35
2022-11-21T16:37:54.794Z,20.85
2022-11-21T16:40:21.175Z,24.63
2022-11-21T16:42:47.550Z,23.12
2022-11-21T16:45:14.075Z,21.75
2022-11-21T16:47:44.370Z,20.40
2022-11-21T16:50:14.814Z,21.60
2022-11-21T16:52:41.119Z,21.52
2022-11-21T16:55:07.505Z,21.02
2022-11-21T16:57:34.059Z,19.77
2022-11-21T17:00:00.768Z,19.95
2022-11-21T17:02:27.161Z,18.92
2022-11-21T17:04:53.501Z,20.48
2022-11-21T17:07:19.887Z,19.02
2022-11-21T17:09:46.258Z,18.95
2022-11-21T17:12:13.465Z,20.05
2022-11-21T17:14:39.776Z,19.35
2022-11-21T17:17:06.100Z,19.45
2022-11-21T17:19:32.490Z,19.02
2022-11-21T17:22:00.217Z,19.27
2022-11-21T17:24:26.818Z,18.73
2022-11-21T17:26:53.304Z,17.95
2022-11-21T17:29:19.608Z,17.58
2022-11-21T17:31:47.040Z,17.90
2022-11-21T17:34:13.496Z,17.55
2022-11-21T17:36:39.947Z,16.65
2022-11-21T17:39:06.284Z,17.10
2022-11-21T17:41:32.747Z,16.42
2022-11-21T17:43:59.759Z,17.98
2022-11-21T17:46:26.213Z,17.05
2022-11-21T17:48:55.299Z,17.98
2022-11-21T17:51:23.941Z,15.88
2022-11-21T17:53:50.261Z,17.55
2022-11-21T17:56:16.572Z,18.60
2022-11-21T17:58:42.900Z,17.60
2022-11-21T18:01:10.610Z,17.35
2022-11-21T18:03:37.311Z,16.20
2022-11-21T18:06:03.633Z,16.20
2022-11-21T18:08:30.022Z,16.37
2022-11-21T18:10:56.456Z,16.05
2022-11-21T18:13:22.786Z,16.23
2022-11-21T18:15:49.142Z,16.50
2022-11-21T18:18:15.527Z,15.77
2022-11-21T18:20:41.860Z,16.52
2022-11-21T18:23:08.604Z,17.12
2022-11-21T18:25:34.959Z,16.40
2022-11-21T18:28:01.286Z,15.82
2022-11-21T18:30:27.598Z,15.98
2022-11-21T18:32:53.897Z,13.85
2022-11-21T18:35:20.242Z,15.18
2022-11-21T18:37:47.000Z,15.23
2022-11-21T18:40:13.346Z,15.38
2022-11-21T18:42:39.659Z,14.32
2022-11-21T18:45:05.991Z,12.95
2022-11-21T18:47:32.311Z,14.95
2022-11-21T18:49:58.622Z,16.17
2022-11-21T18:52:25.023Z,13.65
2022-11-21T18:54:51.333Z,14.57
2022-11-21T18:57:17.651Z,15.02
2022-11-21T18:59:44.079Z,14.80
2022-11-21T19:02:10.436Z,13.98
2022-11-21T19:04:36.766Z,14.27
2022-11-21T19:07:03.359Z,13.95
2022-11-21T19:09:32.681Z,14.63
2022-11-21T19:11:59.337Z,14.05
2022-11-21T19:14:25.788Z,18.50
2022-11-21T19:16:52.325Z,27.25
2022-11-21T19:19:35.269Z,14.20
2022-11-21T19:22:04.356Z,13.07
2022-11-21T19:24:30.665Z,13.07
2022-11-21T19:26:57.205Z,12.25
2022-11-21T19:29:23.520Z,50.28
2022-11-21T19:31:50.070Z,23.23
2022-11-21T19:34:16.596Z,14.38
2022-11-21T19:36:42.999Z,12.65
2022-11-21T19:39:09.371Z,13.02
2022-11-21T19:41:35.722Z,12.05
2022-11-21T19:44:02.054Z,12.15
2022-11-21T19:46:28.874Z,13.45
2022-11-21T19:48:55.278Z,12.80
2022-11-21T19:51:21.617Z,13.38
2022-11-21T19:53:47.983Z,13.30
2022-11-21T19:56:14.303Z,13.25
2022-11-21T19:58:40.613Z,12.60
2022-11-21T20:01:07.307Z,13.40
2022-11-21T20:03:33.737Z,11.27
2022-11-21T20:06:00.046Z,12.88
2022-11-21T20:08:26.380Z,12.32
2022-11-21T20:10:52.739Z,12.40
2022-11-21T20:13:19.077Z,12.63
2022-11-21T20:15:45.403Z,12.43
2022-11-21T20:18:12.647Z,13.15
2022-11-21T20:20:38.983Z,12.00
2022-11-21T20:23:05.719Z,12.73
2022-11-21T20:25:32.032Z,12.13
2022-11-21T20:28:01.575Z,12.52
2022-11-21T20:30:27.929Z,12.13
2022-11-21T20:32:54.653Z,11.60
2022-11-21T20:35:20.970Z,11.55
2022-11-21T20:37:47.274Z,12.60
2022-11-21T20:40:13.588Z,12.52
2022-11-21T20:42:40.406Z,12.82
2022-11-21T20:47:53.039Z,12.80
2022-11-21T20:50:48.693Z,11.48
2022-11-21T20:53:50.766Z,12.05
2022-11-21T20:55:52.140Z,11.65
2022-11-21T20:58:18.458Z,11.40
2022-11-21T21:00:44.801Z,12.13
2022-11-21T21:03:11.111Z,12.02
2022-11-21T21:05:37.454Z,12.05
2022-11-21T21:08:03.926Z,12.27
2022-11-21T21:10:46.005Z,12.65
2022-11-21T21:13:16.635Z,10.98
2022-11-21T21:15:42.962Z,12.20
2022-11-21T21:18:09.292Z,12.88
2022-11-21T21:20:49.353Z,13.32
2022-11-21T21:23:21.926Z,12.55
2022-11-21T21:25:48.239Z,13.05
2022-11-21T21:28:14.573Z,12.45
2022-11-21T21:30:41.192Z,11.57
2022-11-21T21:33:07.502Z,12.20
2022-11-21T21:35:33.842Z,12.00
2022-11-21T21:38:01.920Z,10.98
2022-11-21T21:40:33.112Z,10.70
2022-11-21T21:42:59.504Z,11.43
2022-11-21T21:45:25.809Z,11.02
2022-11-21T21:47:52.431Z,10.68
2022-11-21T21:50:18.733Z,11.15
2022-11-21T21:52:45.042Z,10.35
2022-11-21T21:55:11.892Z,10.52
2022-11-21T21:57:43.546Z,10.23
2022-11-21T22:00:12.448Z,11.50
2022-11-21T22:02:39.832Z,11.00
2022-11-21T22:05:06.149Z,10.00
2022-11-21T22:07:32.552Z,11.65
2022-11-21T22:09:58.921Z,10.55
2022-11-21T22:12:25.520Z,10.20
2022-11-21T22:14:51.818Z,11.12
2022-11-21T22:17:18.175Z,11.82
2022-11-21T22:19:44.487Z,11.50
2022-11-21T22:22:10.830Z,11.68
2022-11-21T22:24:39.483Z,10.88
2022-11-21T22:27:06.073Z,11.77
2022-11-21T22:29:32.394Z,10.80
2022-11-21T22:31:58.723Z,11.15
2022-11-21T22:34:25.114Z,11.45
2022-11-21T22:36:51.438Z,11.60
2022-11-21T22:39:18.152Z,11.27
2022-11-21T22:41:44.566Z,9.88
2022-11-21T22:44:10.896Z,11.15
2022-11-21T22:46:37.382Z,10.50
2022-11-21T22:49:03.811Z,10.75
2022-11-21T22:51:30.386Z,10.13
2022-11-21T22:53:56.741Z,10.60
2022-11-21T22:56:23.091Z,9.63
2022-11-21T22:58:49.421Z,10.25
2022-11-21T23:01:15.785Z,10.05
2022-11-21T23:03:42.165Z,9.32
2022-11-21T23:06:08.497Z,10.48
2022-11-21T23:08:34.821Z,10.32
2022-11-21T23:11:01.123Z,10.13
2022-11-21T23:13:27.484Z,10.90
2022-11-21T23:15:53.799Z,9.40
2022-11-21T23:18:20.102Z,9.90
2022-11-21T23:20:46.571Z,10.43
2022-11-21T23:23:12.919Z,10.18
2022-11-21T23:25:39.338Z,10.65
2022-11-21T23:28:05.699Z,11.15
2022-11-21T23:30:32.051Z,11.27
2022-11-21T23:32:58.364Z,11.20
2022-11-21T23:35:24.680Z,10.10
2022-11-21T23:37:51.015Z,10.73
2022-11-21T23:40:17.347Z,11.20
2022-11-21T23:42:43.732Z,10.30
2022-11-21T23:45:10.086Z,11.07
2022-11-21T23:47:36.416Z,10.80
2022-11-21T23:50:02.721Z,11.63
2022-11-21T23:52:29.082Z,12.95
2022-11-21T23:54:55.925Z,12.27
2022-11-21T23:57:22.221Z,11.18
2022-11-21T23:59:48.570Z,11.00
